Time,TemperatureF,DewpointF,PressureIn,WindDirection,WindDirectionDegrees,WindSpeedMPH,WindSpeedGustMPH,Humidity,HourlyPrecipIn,Conditions,Clouds,dailyrainin,SoftwareType,DateUTC
2013-10-18 00:17:00,60.0,54.0,29.78,ESE,117,1.0,3.0,80,0.00,,,0.00,weatherlink.com 1.10,2013-10-18 05:17:00,
2013-10-18 00:32:00,60.3,54.0,29.78,ESE,123,1.0,4.0,79,0.00,,,0.00,weatherlink.com 1.10,2013-10-18 05:32:00,
2013-10-18 00:47:00,60.1,54.0,29.77,ESE,116,7.0,7.0,80,0.00,,,0.00,weatherlink.com 1.10,2013-10-18 05:47:00,
2013-10-18 01:02:00,60.0,54.0,29.77,ESE,114,0.0,3.0,80,0.00,,,0.00,weatherlink.com 1.10,2013-10-18 06:02:00,
2013-10-18 01:17:00,59.4,54.0,29.77,ESE,113,1.0,2.0,81,0.00,,,0.00,weatherlink.com 1.10,2013-10-18 06:17:00,
2013-10-18 01:32:00,59.3,54.0,29.77,ESE,113,0.0,1.0,81,0.00,,,0.00,weatherlink.com 1.10,2013-10-18 06:32:00,
2013-10-18 01:47:00,59.2,53.0,29.77,ESE,117,1.0,3.0,81,0.00,,,0.00,weatherlink.com 1.10,2013-10-18 06:47:00,
2013-10-18 02:02:00,59.2,53.0,29.76,ESE,114,0.0,2.0,81,0.00,,,0.00,weatherlink.com 1.10,2013-10-18 07:02:00,
2013-10-18 02:17:00,59.0,53.0,29.76,ESE,114,0.0,1.0,81,0.00,,,0.00,weatherlink.com 1.10,2013-10-18 07:17:00,
2013-10-18 02:32:00,59.5,53.0,29.76,ESE,114,0.0,1.0,80,0.00,,,0.00,weatherlink.com 1.10,2013-10-18 07:32:00,
2013-10-18 02:47:00,59.2,53.0,29.76,ESE,114,0.0,0.0,80,0.00,,,0.00,weatherlink.com 1.10,2013-10-18 07:47:00,
2013-10-18 03:02:00,58.3,53.0,29.76,ESE,114,0.0,2.0,82,0.00,,,0.00,weatherlink.com 1.10,2013-10-18 08:02:00,
2013-10-18 03:17:00,58.6,53.0,29.76,ESE,114,0.0,1.0,81,0.00,,,0.00,weatherlink.com 1.10,2013-10-18 08:17:00,
2013-10-18 03:32:00,57.2,53.0,29.76,ESE,110,0.0,5.0,85,0.00,,,0.00,weatherlink.com 1.10,2013-10-18 08:32:00,
2013-10-18 03:47:00,58.1,53.0,29.76,ESE,110,0.0,0.0,82,0.00,,,0.00,weatherlink.com 1.10,2013-10-18 08:47:00,
2013-10-18 04:02:00,58.3,53.0,29.75,ESE,110,0.0,1.0,81,0.00,,,0.00,weatherlink.com 1.10,2013-10-18 09:02:00,
2013-10-18 04:17:00,58.7,53.0,29.75,ESE,110,0.0,0.0,80,0.00,,,0.00,weatherlink.com 1.10,2013-10-18 09:17:00,
2013-10-18 04:32:00,58.4,53.0,29.75,ESE,106,0.0,2.0,81,0.00,,,0.00,weatherlink.com 1.10,2013-10-18 09:32:00,
2013-10-18 04:47:00,58.1,53.0,29.74,ESE,107,0.0,2.0,83,0.00,,,0.00,weatherlink.com 1.10,2013-10-18 09:47:00,
2013-10-18 05:02:00,58.5,53.0,29.74,ESE,107,0.0,1.0,82,0.00,,,0.00,weatherlink.com 1.10,2013-10-18 10:02:00,
2013-10-18 05:17:00,58.4,53.0,29.74,ESE,107,3.0,3.0,82,0.00,,,0.00,weatherlink.com 1.10,2013-10-18 10:17:00,
2013-10-18 05:32:00,58.9,54.0,29.74,ESE,123,0.0,2.0,83,0.00,,,0.00,weatherlink.com 1.10,2013-10-18 10:32:00,
2013-10-18 05:47:00,59.6,54.0,29.75,WSW,237,0.0,2.0,82,0.00,,,0.00,weatherlink.com 1.10,2013-10-18 10:47:00,
2013-10-18 06:02:00,60.4,55.0,29.75,West,268,0.0,3.0,83,0.00,,,0.00,weatherlink.com 1.10,2013-10-18 11:02:00,
2013-10-18 06:17:00,59.5,54.0,29.75,West,267,0.0,4.0,83,0.00,,,0.00,weatherlink.com 1.10,2013-10-18 11:17:00,
2013-10-18 06:32:00,59.1,55.0,29.75,West,267,0.0,1.0,85,0.00,,,0.00,weatherlink.com 1.10,2013-10-18 11:32:00,
2013-10-18 06:47:00,58.4,54.0,29.75,WNW,286,0.0,0.0,86,0.00,,,0.00,weatherlink.com 1.10,2013-10-18 11:47:00,
2013-10-18 07:02:00,58.0,54.0,29.76,WNW,286,0.0,0.0,87,0.00,,,0.00,weatherlink.com 1.10,2013-10-18 12:02:00,
2013-10-18 07:17:00,57.5,54.0,29.76,WNW,286,0.0,1.0,88,0.00,,,0.00,weatherlink.com 1.10,2013-10-18 12:17:00,
2013-10-18 07:32:00,57.9,55.0,29.76,WNW,286,0.0,1.0,89,0.00,,,0.00,weatherlink.com 1.10,2013-10-18 12:32:00,
2013-10-18 07:47:00,57.2,54.0,29.76,WNW,286,0.0,2.0,89,0.00,,,0.00,weatherlink.com 1.10,2013-10-18 12:47:00,
2013-10-18 08:02:00,57.4,54.0,29.76,WNW,286,0.0,0.0,89,0.00,,,0.00,weatherlink.com 1.10,2013-10-18 13:02:00,
2013-10-18 08:17:00,57.6,55.0,29.76,WNW,286,0.0,0.0,90,0.00,,,0.00,weatherlink.com 1.10,2013-10-18 13:17:00,
2013-10-18 08:32:00,58.1,55.0,29.77,WNW,286,0.0,1.0,89,0.00,,,0.00,weatherlink.com 1.10,2013-10-18 13:32:00,
2013-10-18 08:47:00,57.6,55.0,29.77,WNW,286,0.0,0.0,91,0.00,,,0.00,weatherlink.com 1.10,2013-10-18 13:47:00,
2013-10-18 09:02:00,58.9,56.0,29.77,WNW,286,0.0,1.0,89,0.00,,,0.00,weatherlink.com 1.10,2013-10-18 14:02:00,
2013-10-18 09:17:00,60.1,56.0,29.78,WNW,286,0.0,1.0,87,0.00,,,0.00,weatherlink.com 1.10,2013-10-18 14:17:00,
2013-10-18 09:33:00,61.8,57.0,29.78,WNW,286,0.0,1.0,85,0.00,,,0.00,weatherlink.com 1.10,2013-10-18 14:33:00,
2013-10-18 09:48:00,62.8,58.0,29.78,WNW,286,1.0,1.0,83,0.00,,,0.00,weatherlink.com 1.10,2013-10-18 14:48:00,
2013-10-18 10:03:00,64.5,59.0,29.78,West,265,0.0,5.0,81,0.00,,,0.00,weatherlink.com 1.10,2013-10-18 15:03:00,
2013-10-18 10:18:00,65.4,59.0,29.79,WSW,254,4.0,7.0,80,0.00,,,0.00,weatherlink.com 1.10,2013-10-18 15:18:00,
2013-10-18 10:33:00,67.2,59.0,29.79,WSW,248,5.0,5.0,76,0.00,,,0.00,weatherlink.com 1.10,2013-10-18 15:33:00,
2013-10-18 10:48:00,68.0,59.0,29.79,West,273,3.0,7.0,73,0.00,,,0.00,weatherlink.com 1.10,2013-10-18 15:48:00,
2013-10-18 11:03:00,68.7,58.0,29.78,WSW,252,5.0,8.0,69,0.00,,,0.00,weatherlink.com 1.10,2013-10-18 16:03:00,
2013-10-18 11:18:00,70.8,58.0,29.78,WNW,294,1.0,5.0,64,0.00,,,0.00,weatherlink.com 1.10,2013-10-18 16:18:00,
2013-10-18 11:33:00,71.3,52.0,29.78,West,260,5.0,8.0,51,0.00,,,0.00,weatherlink.com 1.10,2013-10-18 16:33:00,
2013-10-18 11:48:00,72.3,52.0,29.77,West,263,3.0,10.0,49,0.00,,,0.00,weatherlink.com 1.10,2013-10-18 16:48:00,
2013-10-18 12:03:00,73.2,50.0,29.77,West,275,1.0,7.0,44,0.00,,,0.00,weatherlink.com 1.10,2013-10-18 17:03:00,
2013-10-18 12:18:00,74.3,44.0,29.77,West,270,4.0,10.0,34,0.00,,,0.00,weatherlink.com 1.10,2013-10-18 17:18:00,
2013-10-18 12:33:00,75.7,36.0,29.77,West,270,2.0,8.0,24,0.00,,,0.00,weatherlink.com 1.10,2013-10-18 17:33:00,
2013-10-18 12:49:00,76.6,43.0,29.77,West,273,6.0,10.0,30,0.00,,,0.00,weatherlink.com 1.10,2013-10-18 17:49:00,
2013-10-18 13:04:00,76.8,45.0,29.76,West,276,2.0,7.0,32,0.00,,,0.00,weatherlink.com 1.10,2013-10-18 18:04:00,
2013-10-18 13:19:00,76.8,44.0,29.75,WSW,251,4.0,8.0,31,0.00,,,0.00,weatherlink.com 1.10,2013-10-18 18:19:00,
2013-10-18 13:34:00,76.1,42.0,29.75,West,259,5.0,14.0,30,0.00,,,0.00,weatherlink.com 1.10,2013-10-18 18:34:00,
2013-10-18 13:49:00,76.6,39.0,29.74,WSW,257,3.0,10.0,26,0.00,,,0.00,weatherlink.com 1.10,2013-10-18 18:49:00,
2013-10-18 14:04:00,78.0,36.0,29.74,WSW,255,8.0,11.0,22,0.00,,,0.00,weatherlink.com 1.10,2013-10-18 19:04:00,
2013-10-18 14:19:00,78.3,36.0,29.73,WSW,257,8.0,14.0,22,0.00,,,0.00,weatherlink.com 1.10,2013-10-18 19:19:00,
2013-10-18 14:34:00,78.1,34.0,29.73,SW,229,9.0,15.0,20,0.00,,,0.00,weatherlink.com 1.10,2013-10-18 19:34:00,
2013-10-18 14:49:00,78.2,36.0,29.72,WSW,250,14.0,15.0,22,0.00,,,0.00,weatherlink.com 1.10,2013-10-18 19:49:00,
2013-10-18 15:04:00,78.0,34.0,29.72,West,280,9.0,16.0,20,0.00,,,0.00,weatherlink.com 1.10,2013-10-18 20:04:00,
2013-10-18 15:19:00,78.4,30.0,29.72,West,261,7.0,14.0,17,0.00,,,0.00,weatherlink.com 1.10,2013-10-18 20:19:00,
2013-10-18 15:49:00,77.7,32.0,29.71,West,270,7.0,13.0,19,0.00,,,0.00,weatherlink.com 1.10,2013-10-18 20:49:00,
2013-10-18 16:04:00,78.6,32.0,29.72,WSW,252,7.0,17.0,18,0.00,,,0.00,weatherlink.com 1.10,2013-10-18 21:04:00,
2013-10-18 16:19:00,78.4,31.0,29.72,West,271,9.0,14.0,18,0.00,,,0.00,weatherlink.com 1.10,2013-10-18 21:19:00,
2013-10-18 16:34:00,78.2,30.0,29.72,West,272,5.0,18.0,17,0.00,,,0.00,weatherlink.com 1.10,2013-10-18 21:34:00,
2013-10-18 16:49:00,77.7,31.0,29.72,WSW,247,8.0,13.0,18,0.00,,,0.00,weatherlink.com 1.10,2013-10-18 21:49:00,
2013-10-18 17:04:00,77.2,29.0,29.72,WSW,246,9.0,15.0,17,0.00,,,0.00,weatherlink.com 1.10,2013-10-18 22:04:00,
2013-10-18 17:19:00,77.8,30.0,29.73,West,259,15.0,16.0,17,0.00,,,0.00,weatherlink.com 1.10,2013-10-18 22:19:00,
2013-10-18 17:34:00,77.8,28.0,29.73,WSW,248,6.0,14.0,16,0.00,,,0.00,weatherlink.com 1.10,2013-10-18 22:34:00,
2013-10-18 17:49:00,77.6,28.0,29.73,West,281,5.0,12.0,16,0.00,,,0.00,weatherlink.com 1.10,2013-10-18 22:49:00,
2013-10-18 18:04:00,76.6,29.0,29.74,SW,224,10.0,16.0,17,0.00,,,0.00,weatherlink.com 1.10,2013-10-18 23:04:00,
2013-10-18 18:19:00,75.7,28.0,29.74,West,270,10.0,13.0,17,0.00,,,0.00,weatherlink.com 1.10,2013-10-18 23:19:00,
2013-10-18 18:34:00,75.1,27.0,29.75,West,267,8.0,14.0,17,0.00,,,0.00,weatherlink.com 1.10,2013-10-18 23:34:00,
2013-10-18 18:49:00,74.1,26.0,29.76,WSW,257,4.0,8.0,17,0.00,,,0.00,weatherlink.com 1.10,2013-10-18 23:49:00,
2013-10-18 19:04:00,72.9,27.0,29.76,WNW,291,6.0,9.0,18,0.00,,,0.00,weatherlink.com 1.10,2013-10-19 00:04:00,
2013-10-18 19:19:00,71.1,27.0,29.77,West,275,4.0,9.0,19,0.00,,,0.00,weatherlink.com 1.10,2013-10-19 00:19:00,
2013-10-18 19:34:00,69.4,27.0,29.78,WNW,289,2.0,6.0,20,0.00,,,0.00,weatherlink.com 1.10,2013-10-19 00:34:00,
2013-10-18 19:49:00,68.6,27.0,29.79,WNW,286,2.0,7.0,21,0.00,,,0.00,weatherlink.com 1.10,2013-10-19 00:49:00,
2013-10-18 20:04:00,66.9,28.0,29.80,WNW,291,2.0,4.0,23,0.00,,,0.00,weatherlink.com 1.10,2013-10-19 01:04:00,
2013-10-18 20:19:00,66.2,27.0,29.81,WNW,296,0.0,3.0,23,0.00,,,0.00,weatherlink.com 1.10,2013-10-19 01:19:00,
2013-10-18 20:34:00,65.6,27.0,29.84,ESE,103,0.0,5.0,23,0.00,,,0.00,weatherlink.com 1.10,2013-10-19 01:34:00,
2013-10-18 21:04:00,65.1,32.0,29.85,WNW,291,2.0,10.0,29,0.00,,,0.00,weatherlink.com 1.10,2013-10-19 02:04:00,
2013-10-18 21:20:00,62.2,33.0,29.86,SW,235,0.0,2.0,33,0.00,,,0.00,weatherlink.com 1.10,2013-10-19 02:20:00,
2013-10-18 21:34:00,60.2,34.0,29.87,SW,236,0.0,2.0,37,0.00,,,0.00,weatherlink.com 1.10,2013-10-19 02:34:00,
2013-10-18 21:49:00,60.5,35.0,29.89,WNW,294,0.0,6.0,38,0.00,,,0.00,weatherlink.com 1.10,2013-10-19 02:49:00,
2013-10-18 22:04:00,58.2,40.0,29.92,NNW,338,3.0,13.0,52,0.00,,,0.00,weatherlink.com 1.10,2013-10-19 03:04:00,
2013-10-18 22:20:00,56.1,42.0,29.94,NW,321,6.0,11.0,59,0.00,,,0.00,weatherlink.com 1.10,2013-10-19 03:20:00,
2013-10-18 22:35:00,54.1,42.0,29.95,West,273,2.0,14.0,64,0.00,,,0.00,weatherlink.com 1.10,2013-10-19 03:35:00,
2013-10-18 22:50:00,53.1,42.0,29.96,NE,52,4.0,12.0,65,0.00,,,0.00,weatherlink.com 1.10,2013-10-19 03:50:00,
2013-10-18 23:05:00,52.4,41.0,29.97,NW,326,9.0,20.0,65,0.00,,,0.00,weatherlink.com 1.10,2013-10-19 04:05:00,
2013-10-18 23:20:00,51.3,40.0,29.98,NW,309,8.0,12.0,65,0.00,,,0.00,weatherlink.com 1.10,2013-10-19 04:20:00,
2013-10-18 23:35:00,50.0,39.0,29.99,North,5,9.0,15.0,67,0.00,,,0.00,weatherlink.com 1.10,2013-10-19 04:35:00,
2013-10-18 23:50:00,49.0,39.0,30.00,NNW,347,3.0,11.0,69,0.00,,,0.00,weatherlink.com 1.10,2013-10-19 04:50:00,